sensor_id;sensor_type;location;lat;lon;timestamp;P1;durP1;ratioP1;P2;durP2;ratioP2
10059;SDS011;5069;49.306;8.636;2023-01-31T00:01:54;13.30;;;8.17;;
10059;SDS011;5069;49.306;8.636;2023-01-31T00:04:55;14.30;;;8.83;;
10059;SDS011;5069;49.306;8.636;2023-01-31T00:07:57;12.70;;;8.40;;
10059;SDS011;5069;49.306;8.636;2023-01-31T00:10:58;12.03;;;8.93;;
10059;SDS011;5069;49.306;8.636;2023-01-31T00:14:00;12.80;;;8.83;;
10059;SDS011;5069;49.306;8.636;2023-01-31T00:17:04;14.77;;;9.13;;
10059;SDS011;5069;49.306;8.636;2023-01-31T00:20:05;13.07;;;8.50;;
10059;SDS011;5069;49.306;8.636;2023-01-31T00:23:08;18.90;;;9.43;;
10059;SDS011;5069;49.306;8.636;2023-01-31T00:26:10;16.23;;;9.00;;
10059;SDS011;5069;49.306;8.636;2023-01-31T00:29:19;13.93;;;9.20;;
10059;SDS011;5069;49.306;8.636;2023-01-31T00:32:20;13.87;;;9.17;;
10059;SDS011;5069;49.306;8.636;2023-01-31T00:35:24;16.43;;;9.30;;
10059;SDS011;5069;49.306;8.636;2023-01-31T00:38:25;14.47;;;9.17;;
10059;SDS011;5069;49.306;8.636;2023-01-31T00:41:27;15.53;;;9.87;;
10059;SDS011;5069;49.306;8.636;2023-01-31T00:44:30;17.43;;;10.17;;
10059;SDS011;5069;49.306;8.636;2023-01-31T00:47:32;14.30;;;10.37;;
10059;SDS011;5069;49.306;8.636;2023-01-31T00:50:33;13.30;;;9.67;;
10059;SDS011;5069;49.306;8.636;2023-01-31T00:53:36;13.53;;;9.63;;
10059;SDS011;5069;49.306;8.636;2023-01-31T00:56:38;13.93;;;9.43;;
10059;SDS011;5069;49.306;8.636;2023-01-31T00:59:40;14.00;;;9.83;;
10059;SDS011;5069;49.306;8.636;2023-01-31T01:02:41;16.50;;;10.57;;
10059;SDS011;5069;49.306;8.636;2023-01-31T01:05:43;16.53;;;9.70;;
10059;SDS011;5069;49.306;8.636;2023-01-31T01:08:45;15.20;;;9.90;;
10059;SDS011;5069;49.306;8.636;2023-01-31T01:11:48;13.73;;;9.30;;
10059;SDS011;5069;49.306;8.636;2023-01-31T01:14:50;16.17;;;9.70;;
10059;SDS011;5069;49.306;8.636;2023-01-31T01:17:51;14.37;;;9.33;;
10059;SDS011;5069;49.306;8.636;2023-01-31T01:20:53;17.10;;;10.07;;
10059;SDS011;5069;49.306;8.636;2023-01-31T01:23:55;15.50;;;9.47;;
10059;SDS011;5069;49.306;8.636;2023-01-31T01:26:58;17.07;;;10.20;;
10059;SDS011;5069;49.306;8.636;2023-01-31T01:29:59;16.67;;;9.00;;
10059;SDS011;5069;49.306;8.636;2023-01-31T01:33:02;13.40;;;8.93;;
10059;SDS011;5069;49.306;8.636;2023-01-31T01:36:04;16.70;;;9.60;;
10059;SDS011;5069;49.306;8.636;2023-01-31T01:39:09;13.90;;;9.40;;
10059;SDS011;5069;49.306;8.636;2023-01-31T01:42:15;17.13;;;9.07;;
10059;SDS011;5069;49.306;8.636;2023-01-31T01:45:18;18.50;;;9.57;;
10059;SDS011;5069;49.306;8.636;2023-01-31T01:48:21;15.10;;;9.30;;
10059;SDS011;5069;49.306;8.636;2023-01-31T01:51:23;16.23;;;9.07;;
10059;SDS011;5069;49.306;8.636;2023-01-31T01:54:26;15.23;;;9.30;;
10059;SDS011;5069;49.306;8.636;2023-01-31T01:57:36;13.27;;;9.13;;
10059;SDS011;5069;49.306;8.636;2023-01-31T02:00:42;17.43;;;9.17;;
10059;SDS011;5069;49.306;8.636;2023-01-31T02:03:47;17.47;;;9.87;;
10059;SDS011;5069;49.306;8.636;2023-01-31T02:06:51;18.03;;;9.40;;
10059;SDS011;5069;49.306;8.636;2023-01-31T02:10:01;13.77;;;8.70;;
10059;SDS011;5069;49.306;8.636;2023-01-31T02:13:12;18.30;;;9.33;;
10059;SDS011;5069;49.306;8.636;2023-01-31T02:16:17;16.13;;;9.40;;
10059;SDS011;5069;49.306;8.636;2023-01-31T02:20:25;16.67;;;9.47;;
10059;SDS011;5069;49.306;8.636;2023-01-31T02:30:11;16.37;;;9.90;;
10059;SDS011;5069;49.306;8.636;2023-01-31T02:33:19;14.97;;;9.47;;
10059;SDS011;5069;49.306;8.636;2023-01-31T02:43:34;18.00;;;9.43;;
10059;SDS011;5069;49.306;8.636;2023-01-31T02:47:02;15.20;;;8.77;;
10059;SDS011;5069;49.306;8.636;2023-01-31T02:50:13;18.00;;;9.20;;
10059;SDS011;5069;49.306;8.636;2023-01-31T02:53:34;17.17;;;8.87;;
10059;SDS011;5069;49.306;8.636;2023-01-31T02:56:43;19.50;;;8.83;;
10059;SDS011;5069;49.306;8.636;2023-01-31T02:59:47;17.00;;;9.27;;
10059;SDS011;5069;49.306;8.636;2023-01-31T03:02:49;15.50;;;9.47;;
10059;SDS011;5069;49.306;8.636;2023-01-31T03:06:10;16.10;;;8.80;;
10059;SDS011;5069;49.306;8.636;2023-01-31T03:09:17;14.23;;;8.90;;
10059;SDS011;5069;49.306;8.636;2023-01-31T03:12:35;14.83;;;8.10;;
10059;SDS011;5069;49.306;8.636;2023-01-31T03:15:45;18.10;;;8.73;;
10059;SDS011;5069;49.306;8.636;2023-01-31T03:19:15;15.97;;;8.57;;
10059;SDS011;5069;49.306;8.636;2023-01-31T03:22:24;12.67;;;8.43;;
10059;SDS011;5069;49.306;8.636;2023-01-31T03:25:33;14.07;;;7.80;;
10059;SDS011;5069;49.306;8.636;2023-01-31T03:28:40;15.70;;;8.30;;
10059;SDS011;5069;49.306;8.636;2023-01-31T03:31:46;15.67;;;9.23;;
10059;SDS011;5069;49.306;8.636;2023-01-31T03:34:53;19.27;;;9.67;;
10059;SDS011;5069;49.306;8.636;2023-01-31T03:38:01;15.30;;;8.70;;
10059;SDS011;5069;49.306;8.636;2023-01-31T03:41:20;15.97;;;8.40;;
10059;SDS011;5069;49.306;8.636;2023-01-31T03:44:39;16.33;;;8.30;;
10059;SDS011;5069;49.306;8.636;2023-01-31T03:47:54;16.30;;;8.43;;
10059;SDS011;5069;49.306;8.636;2023-01-31T03:51:00;12.90;;;8.23;;
10059;SDS011;5069;49.306;8.636;2023-01-31T03:54:10;19.77;;;8.63;;
10059;SDS011;5069;49.306;8.636;2023-01-31T03:57:17;17.07;;;9.30;;
10059;SDS011;5069;49.306;8.636;2023-01-31T04:00:24;17.47;;;9.00;;
10059;SDS011;5069;49.306;8.636;2023-01-31T04:03:35;16.17;;;9.17;;
10059;SDS011;5069;49.306;8.636;2023-01-31T04:06:49;16.90;;;8.47;;
10059;SDS011;5069;49.306;8.636;2023-01-31T04:09:51;17.27;;;8.83;;
10059;SDS011;5069;49.306;8.636;2023-01-31T04:12:53;18.23;;;9.10;;
10059;SDS011;5069;49.306;8.636;2023-01-31T04:15:54;15.40;;;9.77;;
10059;SDS011;5069;49.306;8.636;2023-01-31T04:18:56;18.23;;;9.70;;
10059;SDS011;5069;49.306;8.636;2023-01-31T04:21:57;18.40;;;9.57;;
10059;SDS011;5069;49.306;8.636;2023-01-31T04:24:59;17.97;;;9.63;;
10059;SDS011;5069;49.306;8.636;2023-01-31T04:28:00;19.13;;;10.97;;
10059;SDS011;5069;49.306;8.636;2023-01-31T04:31:02;16.93;;;10.47;;
10059;SDS011;5069;49.306;8.636;2023-01-31T04:34:03;19.80;;;10.20;;
10059;SDS011;5069;49.306;8.636;2023-01-31T04:37:05;20.43;;;10.90;;
10059;SDS011;5069;49.306;8.636;2023-01-31T04:40:06;18.17;;;9.77;;
10059;SDS011;5069;49.306;8.636;2023-01-31T04:43:08;18.70;;;9.50;;
10059;SDS011;5069;49.306;8.636;2023-01-31T04:46:11;17.10;;;9.80;;
10059;SDS011;5069;49.306;8.636;2023-01-31T04:49:12;18.53;;;10.13;;
10059;SDS011;5069;49.306;8.636;2023-01-31T04:52:15;18.93;;;10.40;;
10059;SDS011;5069;49.306;8.636;2023-01-31T04:55:17;14.33;;;8.93;;
10059;SDS011;5069;49.306;8.636;2023-01-31T04:58:19;17.63;;;9.63;;
10059;SDS011;5069;49.306;8.636;2023-01-31T05:01:20;16.63;;;9.53;;
10059;SDS011;5069;49.306;8.636;2023-01-31T05:04:22;17.10;;;9.43;;
10059;SDS011;5069;49.306;8.636;2023-01-31T05:07:23;21.10;;;9.93;;
10059;SDS011;5069;49.306;8.636;2023-01-31T05:10:25;17.00;;;9.97;;
10059;SDS011;5069;49.306;8.636;2023-01-31T05:13:26;19.47;;;9.90;;
10059;SDS011;5069;49.306;8.636;2023-01-31T05:16:30;17.57;;;10.07;;
10059;SDS011;5069;49.306;8.636;2023-01-31T05:19:32;16.47;;;9.20;;
10059;SDS011;5069;49.306;8.636;2023-01-31T05:22:33;16.73;;;9.90;;
10059;SDS011;5069;49.306;8.636;2023-01-31T05:25:35;22.87;;;9.40;;
10059;SDS011;5069;49.306;8.636;2023-01-31T05:28:37;17.63;;;10.10;;
10059;SDS011;5069;49.306;8.636;2023-01-31T05:31:39;16.47;;;9.97;;
10059;SDS011;5069;49.306;8.636;2023-01-31T05:34:40;18.77;;;10.00;;
10059;SDS011;5069;49.306;8.636;2023-01-31T05:37:42;15.70;;;9.60;;
10059;SDS011;5069;49.306;8.636;2023-01-31T05:40:45;17.33;;;9.30;;
10059;SDS011;5069;49.306;8.636;2023-01-31T05:43:46;16.70;;;9.53;;
10059;SDS011;5069;49.306;8.636;2023-01-31T05:46:48;17.83;;;10.13;;
10059;SDS011;5069;49.306;8.636;2023-01-31T05:49:49;16.07;;;9.27;;
10059;SDS011;5069;49.306;8.636;2023-01-31T05:52:51;17.43;;;10.03;;
10059;SDS011;5069;49.306;8.636;2023-01-31T05:55:54;18.70;;;10.10;;
10059;SDS011;5069;49.306;8.636;2023-01-31T05:58:56;18.53;;;10.53;;
10059;SDS011;5069;49.306;8.636;2023-01-31T06:01:57;18.13;;;10.40;;
10059;SDS011;5069;49.306;8.636;2023-01-31T06:04:59;17.93;;;9.77;;
10059;SDS011;5069;49.306;8.636;2023-01-31T06:08:02;17.07;;;9.80;;
10059;SDS011;5069;49.306;8.636;2023-01-31T06:11:03;18.10;;;10.30;;
10059;SDS011;5069;49.306;8.636;2023-01-31T06:14:06;17.73;;;10.80;;
10059;SDS011;5069;49.306;8.636;2023-01-31T06:17:08;19.17;;;10.60;;
10059;SDS011;5069;49.306;8.636;2023-01-31T06:20:10;18.37;;;10.77;;
10059;SDS011;5069;49.306;8.636;2023-01-31T06:23:11;20.17;;;11.10;;
10059;SDS011;5069;49.306;8.636;2023-01-31T06:26:13;17.27;;;10.90;;
10059;SDS011;5069;49.306;8.636;2023-01-31T06:29:15;24.73;;;10.97;;
10059;SDS011;5069;49.306;8.636;2023-01-31T06:32:16;17.90;;;10.53;;
10059;SDS011;5069;49.306;8.636;2023-01-31T06:35:17;19.17;;;10.70;;
10059;SDS011;5069;49.306;8.636;2023-01-31T06:38:19;21.00;;;11.17;;
10059;SDS011;5069;49.306;8.636;2023-01-31T06:41:21;17.60;;;10.90;;
10059;SDS011;5069;49.306;8.636;2023-01-31T06:44:22;18.50;;;10.77;;
10059;SDS011;5069;49.306;8.636;2023-01-31T06:47:26;21.80;;;10.80;;
10059;SDS011;5069;49.306;8.636;2023-01-31T06:50:28;18.97;;;10.60;;
10059;SDS011;5069;49.306;8.636;2023-01-31T06:53:29;19.07;;;10.80;;
10059;SDS011;5069;49.306;8.636;2023-01-31T06:56:31;19.97;;;11.23;;
10059;SDS011;5069;49.306;8.636;2023-01-31T06:59:32;16.17;;;10.33;;
10059;SDS011;5069;49.306;8.636;2023-01-31T07:02:34;23.23;;;11.33;;
10059;SDS011;5069;49.306;8.636;2023-01-31T07:05:35;18.53;;;11.13;;
10059;SDS011;5069;49.306;8.636;2023-01-31T07:08:37;19.57;;;10.97;;
10059;SDS011;5069;49.306;8.636;2023-01-31T07:11:38;20.90;;;10.83;;
10059;SDS011;5069;49.306;8.636;2023-01-31T07:14:40;22.67;;;11.80;;
10059;SDS011;5069;49.306;8.636;2023-01-31T07:17:42;21.37;;;12.20;;
10059;SDS011;5069;49.306;8.636;2023-01-31T07:20:44;20.13;;;11.97;;
10059;SDS011;5069;49.306;8.636;2023-01-31T07:23:45;25.07;;;11.10;;
10059;SDS011;5069;49.306;8.636;2023-01-31T07:26:47;22.70;;;11.07;;
10059;SDS011;5069;49.306;8.636;2023-01-31T07:29:53;20.47;;;10.70;;
10059;SDS011;5069;49.306;8.636;2023-01-31T07:32:54;20.17;;;10.80;;
10059;SDS011;5069;49.306;8.636;2023-01-31T07:35:55;20.67;;;10.70;;
10059;SDS011;5069;49.306;8.636;2023-01-31T07:38:57;20.03;;;11.07;;
10059;SDS011;5069;49.306;8.636;2023-01-31T07:42:00;23.70;;;10.80;;
10059;SDS011;5069;49.306;8.636;2023-01-31T07:45:01;20.53;;;10.67;;
10059;SDS011;5069;49.306;8.636;2023-01-31T07:48:22;18.23;;;10.57;;
10059;SDS011;5069;49.306;8.636;2023-01-31T07:51:24;20.10;;;10.30;;
10059;SDS011;5069;49.306;8.636;2023-01-31T07:54:25;17.63;;;9.73;;
10059;SDS011;5069;49.306;8.636;2023-01-31T07:57:29;17.70;;;10.10;;
10059;SDS011;5069;49.306;8.636;2023-01-31T08:00:32;20.67;;;10.37;;
10059;SDS011;5069;49.306;8.636;2023-01-31T08:03:52;17.13;;;10.47;;
10059;SDS011;5069;49.306;8.636;2023-01-31T08:06:53;17.03;;;9.67;;
10059;SDS011;5069;49.306;8.636;2023-01-31T08:09:56;19.83;;;10.53;;
10059;SDS011;5069;49.306;8.636;2023-01-31T08:12:57;19.70;;;10.33;;
10059;SDS011;5069;49.306;8.636;2023-01-31T08:15:59;19.10;;;10.00;;
10059;SDS011;5069;49.306;8.636;2023-01-31T08:19:00;19.83;;;10.27;;
10059;SDS011;5069;49.306;8.636;2023-01-31T08:22:02;19.70;;;10.47;;
10059;SDS011;5069;49.306;8.636;2023-01-31T08:25:04;23.40;;;10.30;;
10059;SDS011;5069;49.306;8.636;2023-01-31T08:28:06;19.53;;;10.87;;
10059;SDS011;5069;49.306;8.636;2023-01-31T08:31:15;22.77;;;10.83;;
10059;SDS011;5069;49.306;8.636;2023-01-31T08:34:19;19.13;;;10.27;;
10059;SDS011;5069;49.306;8.636;2023-01-31T08:37:21;26.73;;;12.30;;
10059;SDS011;5069;49.306;8.636;2023-01-31T08:40:22;23.17;;;11.50;;
10059;SDS011;5069;49.306;8.636;2023-01-31T08:43:24;20.57;;;11.87;;
10059;SDS011;5069;49.306;8.636;2023-01-31T08:46:26;22.57;;;11.83;;
10059;SDS011;5069;49.306;8.636;2023-01-31T08:49:31;19.63;;;11.30;;
10059;SDS011;5069;49.306;8.636;2023-01-31T08:52:36;18.67;;;10.77;;
10059;SDS011;5069;49.306;8.636;2023-01-31T08:55:37;22.93;;;11.43;;
10059;SDS011;5069;49.306;8.636;2023-01-31T08:58:39;25.03;;;11.07;;
10059;SDS011;5069;49.306;8.636;2023-01-31T09:01:42;20.33;;;10.60;;
10059;SDS011;5069;49.306;8.636;2023-01-31T09:04:46;18.90;;;10.57;;
10059;SDS011;5069;49.306;8.636;2023-01-31T09:07:48;18.20;;;10.53;;
10059;SDS011;5069;49.306;8.636;2023-01-31T09:10:50;17.37;;;10.80;;
10059;SDS011;5069;49.306;8.636;2023-01-31T09:13:52;16.47;;;9.70;;
10059;SDS011;5069;49.306;8.636;2023-01-31T09:16:54;17.27;;;9.43;;
10059;SDS011;5069;49.306;8.636;2023-01-31T09:19:56;15.33;;;9.33;;
10059;SDS011;5069;49.306;8.636;2023-01-31T09:22:58;19.93;;;9.60;;
10059;SDS011;5069;49.306;8.636;2023-01-31T09:25:59;17.33;;;9.63;;
10059;SDS011;5069;49.306;8.636;2023-01-31T09:29:01;17.33;;;10.37;;
10059;SDS011;5069;49.306;8.636;2023-01-31T09:32:02;16.53;;;9.40;;
10059;SDS011;5069;49.306;8.636;2023-01-31T09:35:04;20.37;;;9.70;;
10059;SDS011;5069;49.306;8.636;2023-01-31T09:38:06;16.13;;;9.00;;
10059;SDS011;5069;49.306;8.636;2023-01-31T09:44:28;15.90;;;9.07;;
10059;SDS011;5069;49.306;8.636;2023-01-31T09:47:35;16.83;;;8.97;;
10059;SDS011;5069;49.306;8.636;2023-01-31T09:50:42;19.80;;;9.13;;
10059;SDS011;5069;49.306;8.636;2023-01-31T09:53:48;13.93;;;8.37;;
10059;SDS011;5069;49.306;8.636;2023-01-31T09:56:53;14.73;;;7.57;;
10059;SDS011;5069;49.306;8.636;2023-01-31T10:00:31;11.30;;;7.53;;
10059;SDS011;5069;49.306;8.636;2023-01-31T10:03:42;13.00;;;6.77;;
10059;SDS011;5069;49.306;8.636;2023-01-31T10:06:57;15.93;;;8.13;;
10059;SDS011;5069;49.306;8.636;2023-01-31T10:10:07;14.57;;;7.97;;
10059;SDS011;5069;49.306;8.636;2023-01-31T10:13:22;14.10;;;8.07;;
10059;SDS011;5069;49.306;8.636;2023-01-31T10:16:31;15.37;;;7.23;;
10059;SDS011;5069;49.306;8.636;2023-01-31T10:19:39;12.63;;;7.43;;
10059;SDS011;5069;49.306;8.636;2023-01-31T10:22:45;14.63;;;6.30;;
10059;SDS011;5069;49.306;8.636;2023-01-31T10:26:03;16.27;;;7.30;;
10059;SDS011;5069;49.306;8.636;2023-01-31T10:29:20;14.97;;;6.80;;
10059;SDS011;5069;49.306;8.636;2023-01-31T10:32:32;14.47;;;6.53;;
10059;SDS011;5069;49.306;8.636;2023-01-31T10:35:39;14.43;;;7.20;;
10059;SDS011;5069;49.306;8.636;2023-01-31T10:39:06;10.87;;;6.37;;
10059;SDS011;5069;49.306;8.636;2023-01-31T10:42:21;16.43;;;7.53;;
10059;SDS011;5069;49.306;8.636;2023-01-31T10:45:33;15.10;;;6.60;;
10059;SDS011;5069;49.306;8.636;2023-01-31T10:48:35;17.10;;;6.40;;
10059;SDS011;5069;49.306;8.636;2023-01-31T10:51:40;14.30;;;5.57;;
10059;SDS011;5069;49.306;8.636;2023-01-31T10:58:22;12.03;;;5.43;;
10059;SDS011;5069;49.306;8.636;2023-01-31T11:01:23;15.53;;;5.63;;
10059;SDS011;5069;49.306;8.636;2023-01-31T11:04:39;15.53;;;6.13;;
10059;SDS011;5069;49.306;8.636;2023-01-31T11:07:43;14.30;;;5.50;;
10059;SDS011;5069;49.306;8.636;2023-01-31T11:10:49;13.20;;;5.40;;
10059;SDS011;5069;49.306;8.636;2023-01-31T11:14:02;11.37;;;5.40;;
10059;SDS011;5069;49.306;8.636;2023-01-31T11:17:07;13.03;;;5.33;;
10059;SDS011;5069;49.306;8.636;2023-01-31T11:20:19;10.80;;;5.03;;
10059;SDS011;5069;49.306;8.636;2023-01-31T11:23:22;12.43;;;5.90;;
10059;SDS011;5069;49.306;8.636;2023-01-31T11:26:27;14.43;;;5.30;;
10059;SDS011;5069;49.306;8.636;2023-01-31T11:29:35;10.27;;;5.57;;
10059;SDS011;5069;49.306;8.636;2023-01-31T11:32:40;12.17;;;6.37;;
10059;SDS011;5069;49.306;8.636;2023-01-31T11:35:43;13.77;;;6.60;;
10059;SDS011;5069;49.306;8.636;2023-01-31T11:38:52;13.37;;;6.13;;
10059;SDS011;5069;49.306;8.636;2023-01-31T11:41:54;14.30;;;6.90;;
10059;SDS011;5069;49.306;8.636;2023-01-31T11:45:03;10.17;;;6.13;;
10059;SDS011;5069;49.306;8.636;2023-01-31T11:48:18;13.10;;;7.37;;
10059;SDS011;5069;49.306;8.636;2023-01-31T11:51:27;14.03;;;7.47;;
10059;SDS011;5069;49.306;8.636;2023-01-31T11:54:32;12.13;;;6.33;;
10059;SDS011;5069;49.306;8.636;2023-01-31T11:57:35;16.10;;;8.10;;
10059;SDS011;5069;49.306;8.636;2023-01-31T12:00:37;12.83;;;7.10;;
10059;SDS011;5069;49.306;8.636;2023-01-31T12:03:57;15.03;;;7.83;;
10059;SDS011;5069;49.306;8.636;2023-01-31T12:07:05;12.43;;;7.53;;
10059;SDS011;5069;49.306;8.636;2023-01-31T12:13:46;13.10;;;7.70;;
10059;SDS011;5069;49.306;8.636;2023-01-31T12:16:49;12.20;;;7.27;;
10059;SDS011;5069;49.306;8.636;2023-01-31T12:23:34;14.97;;;7.17;;
10059;SDS011;5069;49.306;8.636;2023-01-31T12:26:44;12.30;;;7.90;;
10059;SDS011;5069;49.306;8.636;2023-01-31T12:36:46;10.93;;;6.60;;
10059;SDS011;5069;49.306;8.636;2023-01-31T12:43:35;10.40;;;6.67;;
10059;SDS011;5069;49.306;8.636;2023-01-31T12:53:56;12.73;;;7.13;;
10059;SDS011;5069;49.306;8.636;2023-01-31T13:04:19;10.87;;;7.00;;
10059;SDS011;5069;49.306;8.636;2023-01-31T13:07:34;13.50;;;7.33;;
10059;SDS011;5069;49.306;8.636;2023-01-31T13:10:45;11.57;;;7.20;;
10059;SDS011;5069;49.306;8.636;2023-01-31T13:14:01;11.33;;;6.80;;
10059;SDS011;5069;49.306;8.636;2023-01-31T13:17:05;9.83;;;6.10;;
10059;SDS011;5069;49.306;8.636;2023-01-31T13:23:23;10.93;;;7.33;;
10059;SDS011;5069;49.306;8.636;2023-01-31T13:26:32;12.53;;;6.93;;
10059;SDS011;5069;49.306;8.636;2023-01-31T13:29:41;9.83;;;6.23;;
10059;SDS011;5069;49.306;8.636;2023-01-31T13:32:47;10.00;;;6.90;;
10059;SDS011;5069;49.306;8.636;2023-01-31T13:42:35;10.53;;;6.00;;
10059;SDS011;5069;49.306;8.636;2023-01-31T13:45:41;11.57;;;6.23;;
10059;SDS011;5069;49.306;8.636;2023-01-31T13:48:58;11.10;;;6.30;;
10059;SDS011;5069;49.306;8.636;2023-01-31T13:52:20;10.40;;;6.17;;
10059;SDS011;5069;49.306;8.636;2023-01-31T13:55:29;10.07;;;5.53;;
10059;SDS011;5069;49.306;8.636;2023-01-31T13:58:34;11.17;;;6.20;;
10059;SDS011;5069;49.306;8.636;2023-01-31T14:01:44;9.67;;;6.10;;
10059;SDS011;5069;49.306;8.636;2023-01-31T14:04:48;7.63;;;5.97;;
10059;SDS011;5069;49.306;8.636;2023-01-31T14:08:24;9.27;;;5.57;;
10059;SDS011;5069;49.306;8.636;2023-01-31T14:11:31;12.03;;;5.70;;
10059;SDS011;5069;49.306;8.636;2023-01-31T14:20:40;12.77;;;6.00;;
10059;SDS011;5069;49.306;8.636;2023-01-31T14:23:45;10.50;;;6.30;;
10059;SDS011;5069;49.306;8.636;2023-01-31T14:30:05;10.13;;;6.10;;
10059;SDS011;5069;49.306;8.636;2023-01-31T14:33:20;15.07;;;6.23;;
10059;SDS011;5069;49.306;8.636;2023-01-31T14:36:31;11.57;;;6.40;;
10059;SDS011;5069;49.306;8.636;2023-01-31T14:40:01;10.90;;;5.37;;
10059;SDS011;5069;49.306;8.636;2023-01-31T14:43:21;8.63;;;6.17;;
10059;SDS011;5069;49.306;8.636;2023-01-31T14:46:50;10.37;;;6.20;;
10059;SDS011;5069;49.306;8.636;2023-01-31T14:50:12;7.97;;;5.50;;
10059;SDS011;5069;49.306;8.636;2023-01-31T14:57:07;9.67;;;6.00;;
10059;SDS011;5069;49.306;8.636;2023-01-31T15:03:28;7.97;;;5.90;;
10059;SDS011;5069;49.306;8.636;2023-01-31T15:06:32;8.67;;;5.83;;
10059;SDS011;5069;49.306;8.636;2023-01-31T15:09:40;9.63;;;6.10;;
10059;SDS011;5069;49.306;8.636;2023-01-31T15:12:52;12.27;;;6.27;;
10059;SDS011;5069;49.306;8.636;2023-01-31T15:16:02;12.37;;;6.30;;
10059;SDS011;5069;49.306;8.636;2023-01-31T15:19:07;10.40;;;6.07;;
10059;SDS011;5069;49.306;8.636;2023-01-31T15:22:15;10.10;;;6.10;;
10059;SDS011;5069;49.306;8.636;2023-01-31T15:25:23;7.17;;;5.47;;
10059;SDS011;5069;49.306;8.636;2023-01-31T15:28:34;15.00;;;6.00;;
10059;SDS011;5069;49.306;8.636;2023-01-31T15:31:42;10.23;;;6.00;;
10059;SDS011;5069;49.306;8.636;2023-01-31T15:35:01;11.50;;;5.67;;
10059;SDS011;5069;49.306;8.636;2023-01-31T15:38:24;11.73;;;6.07;;
10059;SDS011;5069;49.306;8.636;2023-01-31T15:41:37;9.70;;;5.80;;
10059;SDS011;5069;49.306;8.636;2023-01-31T15:44:42;12.30;;;6.30;;
10059;SDS011;5069;49.306;8.636;2023-01-31T15:47:53;13.00;;;6.47;;
10059;SDS011;5069;49.306;8.636;2023-01-31T15:50:57;10.27;;;5.87;;
10059;SDS011;5069;49.306;8.636;2023-01-31T15:54:00;11.53;;;5.90;;
10059;SDS011;5069;49.306;8.636;2023-01-31T15:57:08;10.80;;;5.67;;
10059;SDS011;5069;49.306;8.636;2023-01-31T16:00:34;11.43;;;6.13;;
10059;SDS011;5069;49.306;8.636;2023-01-31T16:03:38;11.97;;;5.90;;
10059;SDS011;5069;49.306;8.636;2023-01-31T16:06:42;11.00;;;5.70;;
10059;SDS011;5069;49.306;8.636;2023-01-31T16:09:43;11.47;;;5.90;;
10059;SDS011;5069;49.306;8.636;2023-01-31T16:12:46;10.70;;;5.83;;
10059;SDS011;5069;49.306;8.636;2023-01-31T16:15:50;9.90;;;6.13;;
10059;SDS011;5069;49.306;8.636;2023-01-31T16:18:54;11.20;;;6.13;;
10059;SDS011;5069;49.306;8.636;2023-01-31T16:21:59;13.13;;;5.20;;
10059;SDS011;5069;49.306;8.636;2023-01-31T16:25:01;13.53;;;5.63;;
10059;SDS011;5069;49.306;8.636;2023-01-31T16:28:05;11.17;;;5.93;;
10059;SDS011;5069;49.306;8.636;2023-01-31T16:31:15;7.83;;;5.10;;
10059;SDS011;5069;49.306;8.636;2023-01-31T16:34:23;12.20;;;5.70;;
10059;SDS011;5069;49.306;8.636;2023-01-31T16:37:32;11.13;;;5.67;;
10059;SDS011;5069;49.306;8.636;2023-01-31T16:40:43;9.77;;;5.60;;
10059;SDS011;5069;49.306;8.636;2023-01-31T16:43:48;9.63;;;5.73;;
10059;SDS011;5069;49.306;8.636;2023-01-31T16:46:52;9.97;;;5.33;;
10059;SDS011;5069;49.306;8.636;2023-01-31T16:50:09;13.17;;;6.10;;
10059;SDS011;5069;49.306;8.636;2023-01-31T16:56:19;11.50;;;6.03;;
10059;SDS011;5069;49.306;8.636;2023-01-31T17:02:38;12.90;;;5.83;;
10059;SDS011;5069;49.306;8.636;2023-01-31T17:05:42;9.30;;;6.00;;
10059;SDS011;5069;49.306;8.636;2023-01-31T17:08:47;10.60;;;5.20;;
10059;SDS011;5069;49.306;8.636;2023-01-31T17:11:49;8.73;;;5.70;;
10059;SDS011;5069;49.306;8.636;2023-01-31T17:14:53;8.47;;;5.83;;
10059;SDS011;5069;49.306;8.636;2023-01-31T17:18:02;10.20;;;5.33;;
10059;SDS011;5069;49.306;8.636;2023-01-31T17:21:04;8.00;;;5.33;;
10059;SDS011;5069;49.306;8.636;2023-01-31T17:24:12;9.27;;;5.00;;
10059;SDS011;5069;49.306;8.636;2023-01-31T17:27:16;9.80;;;5.73;;
10059;SDS011;5069;49.306;8.636;2023-01-31T17:30:19;9.53;;;5.53;;
10059;SDS011;5069;49.306;8.636;2023-01-31T17:33:22;9.77;;;6.30;;
10059;SDS011;5069;49.306;8.636;2023-01-31T17:36:23;10.00;;;5.60;;
10059;SDS011;5069;49.306;8.636;2023-01-31T17:39:25;8.20;;;5.80;;
10059;SDS011;5069;49.306;8.636;2023-01-31T17:42:26;12.40;;;5.97;;
10059;SDS011;5069;49.306;8.636;2023-01-31T17:45:28;9.67;;;5.50;;
10059;SDS011;5069;49.306;8.636;2023-01-31T17:48:29;11.83;;;6.00;;
10059;SDS011;5069;49.306;8.636;2023-01-31T17:51:31;9.40;;;5.50;;
10059;SDS011;5069;49.306;8.636;2023-01-31T17:54:32;10.40;;;5.73;;
10059;SDS011;5069;49.306;8.636;2023-01-31T17:57:34;8.10;;;5.63;;
10059;SDS011;5069;49.306;8.636;2023-01-31T18:00:35;12.87;;;6.00;;
10059;SDS011;5069;49.306;8.636;2023-01-31T18:03:37;14.03;;;7.17;;
10059;SDS011;5069;49.306;8.636;2023-01-31T18:06:38;10.97;;;6.27;;
10059;SDS011;5069;49.306;8.636;2023-01-31T18:09:39;10.30;;;5.40;;
10059;SDS011;5069;49.306;8.636;2023-01-31T18:12:41;8.73;;;6.13;;
10059;SDS011;5069;49.306;8.636;2023-01-31T18:15:42;8.17;;;5.63;;
10059;SDS011;5069;49.306;8.636;2023-01-31T18:18:44;10.70;;;5.90;;
10059;SDS011;5069;49.306;8.636;2023-01-31T18:21:45;9.63;;;5.30;;
10059;SDS011;5069;49.306;8.636;2023-01-31T18:24:55;11.53;;;6.03;;
10059;SDS011;5069;49.306;8.636;2023-01-31T18:27:57;7.07;;;5.03;;
10059;SDS011;5069;49.306;8.636;2023-01-31T18:30:59;9.13;;;5.57;;
10059;SDS011;5069;49.306;8.636;2023-01-31T18:34:11;10.17;;;5.30;;
10059;SDS011;5069;49.306;8.636;2023-01-31T18:37:12;8.47;;;5.27;;
10059;SDS011;5069;49.306;8.636;2023-01-31T18:40:20;8.67;;;6.00;;
10059;SDS011;5069;49.306;8.636;2023-01-31T18:43:21;7.57;;;5.63;;
10059;SDS011;5069;49.306;8.636;2023-01-31T18:46:24;7.63;;;5.37;;
10059;SDS011;5069;49.306;8.636;2023-01-31T18:49:25;10.60;;;5.40;;
10059;SDS011;5069;49.306;8.636;2023-01-31T18:52:27;8.63;;;5.83;;
10059;SDS011;5069;49.306;8.636;2023-01-31T18:55:29;11.80;;;5.63;;
10059;SDS011;5069;49.306;8.636;2023-01-31T18:58:35;6.87;;;5.70;;
10059;SDS011;5069;49.306;8.636;2023-01-31T19:01:38;10.87;;;5.67;;
10059;SDS011;5069;49.306;8.636;2023-01-31T19:04:43;9.63;;;5.50;;
10059;SDS011;5069;49.306;8.636;2023-01-31T19:07:44;8.43;;;5.50;;
10059;SDS011;5069;49.306;8.636;2023-01-31T19:10:46;8.23;;;5.83;;
10059;SDS011;5069;49.306;8.636;2023-01-31T19:13:47;8.03;;;5.57;;
10059;SDS011;5069;49.306;8.636;2023-01-31T19:16:49;8.40;;;6.13;;
10059;SDS011;5069;49.306;8.636;2023-01-31T19:19:50;10.83;;;6.17;;
10059;SDS011;5069;49.306;8.636;2023-01-31T19:22:52;7.97;;;5.60;;
10059;SDS011;5069;49.306;8.636;2023-01-31T19:25:53;8.13;;;5.47;;
10059;SDS011;5069;49.306;8.636;2023-01-31T19:28:55;9.40;;;5.70;;
10059;SDS011;5069;49.306;8.636;2023-01-31T19:31:58;9.97;;;6.23;;
10059;SDS011;5069;49.306;8.636;2023-01-31T19:35:00;8.33;;;5.83;;
10059;SDS011;5069;49.306;8.636;2023-01-31T19:38:03;10.47;;;5.70;;
10059;SDS011;5069;49.306;8.636;2023-01-31T19:41:05;10.07;;;5.90;;
10059;SDS011;5069;49.306;8.636;2023-01-31T19:44:08;7.23;;;5.40;;
10059;SDS011;5069;49.306;8.636;2023-01-31T19:47:10;7.60;;;5.63;;
10059;SDS011;5069;49.306;8.636;2023-01-31T19:50:11;9.13;;;5.67;;
10059;SDS011;5069;49.306;8.636;2023-01-31T19:53:13;10.13;;;6.37;;
10059;SDS011;5069;49.306;8.636;2023-01-31T19:56:15;11.83;;;5.47;;
10059;SDS011;5069;49.306;8.636;2023-01-31T19:59:17;9.53;;;5.20;;
10059;SDS011;5069;49.306;8.636;2023-01-31T20:02:19;7.90;;;5.40;;
10059;SDS011;5069;49.306;8.636;2023-01-31T20:05:21;8.70;;;5.23;;